Time;durP1;ratioP1;P1;durP2;ratioP2;P2;SDS_P1;SDS_P2;PMS_P1;PMS_P2;Temp;Humidity;BMP_temperature;BMP_pressure;BME280_temperature;BME280_humidity;BME280_pressure;Samples;Min_cycle;Max_cycle;Signal;HPM_P1;HPM_P2
2022/09/26 00:02:13;;;;;;;16.70;9.75;;;11.20;49.20;;;;;;7361922;19;20011;-69
2022/09/26 00:04:43;;;;;;;16.05;9.52;;;11.20;49.50;;;;;;7383524;19;20110;-70
2022/09/26 00:07:15;;;;;;;14.52;9.68;;;11.10;49.60;;;;;;7359244;19;20014;-69
2022/09/26 00:09:46;;;;;;;16.73;9.70;;;11.10;50.30;;;;;;7363396;19;20055;-69
2022/09/26 00:12:15;;;;;;;18.80;10.35;;;11.00;50.20;;;;;;7362967;19;20344;-69
2022/09/26 00:14:45;;;;;;;14.27;10.23;;;11.00;50.30;;;;;;7360856;19;20529;-69
2022/09/26 00:17:15;;;;;;;16.85;10.43;;;10.90;50.30;;;;;;7359064;19;20015;-71
2022/09/26 00:19:44;;;;;;;16.13;10.10;;;10.90;50.70;;;;;;7385949;19;20050;-69
2022/09/26 00:22:17;;;;;;;17.42;10.60;;;10.80;50.60;;;;;;7361818;19;20015;-69
2022/09/26 00:24:46;;;;;;;20.48;10.07;;;10.80;51.50;;;;;;7360155;19;20014;-69
2022/09/26 00:27:16;;;;;;;14.98;10.13;;;10.80;52.10;;;;;;7359506;19;20022;-69
2022/09/26 00:29:46;;;;;;;16.50;10.20;;;10.70;52.30;;;;;;7360380;19;20043;-69
2022/09/26 00:32:16;;;;;;;21.17;12.15;;;10.70;52.60;;;;;;7360875;19;20014;-69
2022/09/26 00:34:45;;;;;;;17.55;11.23;;;10.60;52.80;;;;;;7384335;19;20022;-69
2022/09/26 00:37:18;;;;;;;22.13;12.25;;;10.60;53.20;;;;;;7357351;19;20018;-69
2022/09/26 00:39:48;;;;;;;17.08;11.52;;;10.60;54.00;;;;;;7360092;19;20042;-69
2022/09/26 00:42:17;;;;;;;16.90;10.85;;;10.60;54.00;;;;;;7360504;19;20046;-69
2022/09/26 00:44:53;;;;;;;23.65;12.55;;;10.50;53.90;;;;;;7360251;19;20339;-69
2022/09/26 00:47:40;;;;;;;17.38;12.00;;;10.50;53.90;;;;;;7357792;19;20014;-70
2022/09/26 00:50:20;;;;;;;19.88;12.05;;;10.50;54.00;;;;;;7368185;19;20026;-70
2022/09/26 00:52:57;;;;;;;20.05;11.82;;;10.40;54.60;;;;;;7381886;19;20018;-69
2022/09/26 00:55:35;;;;;;;22.27;13.10;;;10.40;54.50;;;;;;7359769;19;20014;-69
2022/09/26 00:58:08;;;;;;;21.38;12.43;;;10.40;54.70;;;;;;7358290;19;20017;-69
2022/09/26 01:00:39;;;;;;;20.43;12.30;;;10.40;54.90;;;;;;7359474;19;20015;-69
2022/09/26 01:03:11;;;;;;;19.15;12.68;;;10.40;55.20;;;;;;7359667;19;20426;-69
2022/09/26 01:05:41;;;;;;;26.27;11.98;;;10.30;55.20;;;;;;7360109;19;20015;-70
2022/09/26 01:08:14;;;;;;;20.75;12.43;;;10.30;55.30;;;;;;7365012;19;20022;-69
2022/09/26 01:10:45;;;;;;;18.90;12.23;;;10.30;55.60;;;;;;7380649;19;20019;-69
2022/09/26 01:13:15;;;;;;;21.10;12.77;;;10.30;55.80;;;;;;7359860;19;20011;-69
2022/09/26 01:15:45;;;;;;;18.55;11.82;;;10.30;55.90;;;;;;7361806;19;20014;-70
2022/09/26 01:18:15;;;;;;;19.10;12.63;;;10.20;55.90;;;;;;7367823;19;20042;-70
2022/09/26 01:20:53;;;;;;;18.55;12.88;;;10.20;56.10;;;;;;7368818;19;20034;-69
2022/09/26 01:24:06;;;;;;;19.52;12.52;;;10.20;56.20;;;;;;7367291;19;20015;-69
2022/09/26 01:27:05;;;;;;;19.08;12.02;;;10.10;56.30;;;;;;7364753;19;20502;-69
2022/09/26 01:30:09;;;;;;;20.23;11.85;;;10.10;56.60;;;;;;7366575;19;20086;-70
2022/09/26 01:33:02;;;;;;;20.05;12.73;;;10.00;56.70;;;;;;7367076;19;20018;-69
2022/09/26 01:36:00;;;;;;;19.48;13.07;;;10.00;57.10;;;;;;7369792;19;20021;-69
2022/09/26 01:38:42;;;;;;;22.65;13.57;;;10.00;57.30;;;;;;7364115;19;20004;-69
2022/09/26 01:41:27;;;;;;;20.33;12.10;;;10.00;57.40;;;;;;7365627;19;20025;-70
2022/09/26 01:44:05;;;;;;;22.50;13.45;;;10.10;57.50;;;;;;7387683;19;20518;-69
2022/09/26 01:46:45;;;;;;;22.10;13.35;;;10.10;57.50;;;;;;7363607;19;20011;-69
2022/09/26 01:49:20;;;;;;;20.40;14.10;;;10.20;57.60;;;;;;7365374;19;20015;-69
2022/09/26 01:51:54;;;;;;;18.15;12.65;;;10.20;57.50;;;;;;7365717;19;20019;-69
2022/09/26 01:54:28;;;;;;;20.43;13.27;;;10.10;57.40;;;;;;7366155;19;20034;-69
2022/09/26 01:56:59;;;;;;;;;;;10.10;57.20;;;;;;7364738;19;20014;-69
2022/09/26 01:59:33;;;;;;;23.08;13.82;;;10.10;56.90;;;;;;7365233;19;19931;-69
2022/09/26 02:02:10;;;;;;;22.50;13.30;;;10.00;56.60;;;;;;7388448;19;20018;-69
2022/09/26 02:04:44;;;;;;;22.35;12.43;;;10.10;57.30;;;;;;7367162;19;20018;-69
2022/09/26 02:07:16;;;;;;;17.80;11.80;;;10.10;57.50;;;;;;7362693;19;20489;-69
2022/09/26 02:09:50;;;;;;;17.15;12.00;;;10.10;57.50;;;;;;7364908;19;20474;-68
2022/09/26 02:12:24;;;;;;;20.35;12.65;;;10.00;57.50;;;;;;7365638;19;20014;-69
2022/09/26 02:14:58;;;;;;;18.60;13.77;;;10.00;57.40;;;;;;7365599;19;20482;-69
2022/09/26 02:17:35;;;;;;;21.25;13.90;;;10.00;57.50;;;;;;7363632;19;20038;-69
2022/09/26 02:20:09;;;;;;;21.45;13.48;;;10.10;57.60;;;;;;7390158;19;20042;-69
2022/09/26 02:22:39;;;;;;;19.65;13.85;;;10.00;57.40;;;;;;7364719;19;20018;-69
2022/09/26 02:25:10;;;;;;;21.20;14.13;;;10.10;57.50;;;;;;7363384;19;20103;-69
2022/09/26 02:27:40;;;;;;;19.10;12.85;;;10.10;57.60;;;;;;7360924;19;20017;-69
2022/09/26 02:30:11;;;;;;;19.08;13.13;;;10.10;57.50;;;;;;7364450;19;20015;-68
2022/09/26 02:32:43;;;;;;;19.02;12.68;;;10.10;57.50;;;;;;7364589;19;20690;-69
2022/09/26 02:35:53;;;;;;;19.23;13.07;;;10.10;57.60;;;;;;7367649;19;20014;-69
2022/09/26 02:38:08;;;;;;;20.50;12.70;;;10.10;57.30;;;;;;7385470;19;20014;-68
2022/09/26 02:40:47;;;;;;;17.75;11.98;;;10.10;56.80;;;;;;7363710;19;20393;-68
2022/09/26 02:43:40;;;;;;;21.15;13.10;;;10.10;56.20;;;;;;7364108;19;20089;-68
2022/09/26 02:46:40;;;;;;;19.65;13.60;;;10.10;56.30;;;;;;7361895;19;20014;-69
2022/09/26 02:49:44;;;;;;;18.73;11.93;;;10.10;56.50;;;;;;7362333;19;20014;-69
2022/09/26 02:52:27;;;;;;;20.50;12.67;;;10.10;56.20;;;;;;7363949;19;20042;-69
2022/09/26 02:55:09;;;;;;;16.02;11.75;;;10.20;56.20;;;;;;7364529;19;20018;-69
2022/09/26 02:57:48;;;;;;;16.38;11.50;;;10.20;56.30;;;;;;7363228;19;20131;-69
2022/09/26 03:00:22;;;;;;;18.13;12.10;;;10.20;55.90;;;;;;7363549;19;20510;-70
2022/09/26 03:02:58;;;;;;;20.80;11.80;;;10.20;55.20;;;;;;7364256;19;20018;-69
2022/09/26 03:05:32;;;;;;;17.33;12.77;;;10.20;55.40;;;;;;7366426;19;20015;-69
2022/09/26 03:08:06;;;;;;;15.15;10.90;;;10.20;55.30;;;;;;7382381;19;20025;-69
2022/09/26 03:10:36;;;;;;;21.88;13.18;;;10.20;55.40;;;;;;7363039;19;20479;-69
2022/09/26 03:13:10;;;;;;;23.15;13.48;;;10.20;54.90;;;;;;7362955;19;20029;-69
2022/09/26 03:15:43;;;;;;;18.00;13.15;;;10.20;54.80;;;;;;7363642;19;20011;-69
2022/09/26 03:18:18;;;;;;;23.13;14.02;;;10.20;54.80;;;;;;7365411;19;20042;-69
2022/09/26 03:20:52;;;;;;;19.90;13.35;;;10.20;54.70;;;;;;7387779;19;20014;-69
2022/09/26 03:23:24;;;;;;;20.83;13.68;;;10.10;54.30;;;;;;7363070;19;20022;-69
2022/09/26 03:26:02;;;;;;;20.25;12.45;;;10.10;53.70;;;;;;7361556;19;20018;-70
2022/09/26 03:28:33;;;;;;;18.05;12.63;;;10.20;54.10;;;;;;7361971;19;20596;-69
2022/09/26 03:31:07;;;;;;;16.67;11.98;;;10.20;53.70;;;;;;7362556;19;20014;-69
2022/09/26 03:33:37;;;;;;;16.10;12.02;;;10.10;52.90;;;;;;7363032;19;20404;-69
2022/09/26 03:36:10;;;;;;;20.63;12.45;;;10.10;53.30;;;;;;7362880;19;20022;-68
2022/09/26 03:38:40;;;;;;;22.02;11.70;;;10.10;53.10;;;;;;7382419;19;20519;-68
2022/09/26 03:41:11;;;;;;;15.60;11.77;;;10.10;52.80;;;;;;7361315;19;20068;-68
2022/09/26 03:43:42;;;;;;;15.40;10.90;;;10.10;52.30;;;;;;7361924;19;20030;-68
2022/09/26 03:46:14;;;;;;;17.33;10.50;;;10.10;51.30;;;;;;7361013;19;20106;-68
2022/09/26 03:48:44;;;;;;;17.33;10.98;;;10.00;51.70;;;;;;7361484;19;20014;-68
2022/09/26 03:51:17;;;;;;;19.77;11.27;;;10.10;51.90;;;;;;7361755;19;20671;-68
2022/09/26 03:53:49;;;;;;;14.85;10.40;;;10.00;51.60;;;;;;7384971;19;20050;-68
2022/09/26 03:56:20;;;;;;;18.67;10.60;;;10.00;51.50;;;;;;7364838;19;20014;-68
2022/09/26 03:58:50;;;;;;;13.13;9.70;;;10.00;51.60;;;;;;7361862;19;20418;-68
2022/09/26 04:01:22;;;;;;;14.10;9.55;;;10.00;51.10;;;;;;7361809;19;20015;-68
2022/09/26 04:03:52;;;;;;;14.13;9.32;;;10.00;50.90;;;;;;7362598;19;20011;-68
2022/09/26 04:06:25;;;;;;;12.35;9.45;;;9.90;51.30;;;;;;7360915;19;20010;-68
2022/09/26 04:08:55;;;;;;;13.82;8.80;;;9.90;51.60;;;;;;7361891;19;20022;-70
2022/09/26 04:11:25;;;;;;;15.95;9.18;;;9.80;51.40;;;;;;7382499;19;20039;-69
2022/09/26 04:13:55;;;;;;;11.07;8.20;;;9.70;51.40;;;;;;7361441;19;20014;-69
2022/09/26 04:16:25;;;;;;;13.73;9.88;;;9.70;51.50;;;;;;7359912;19;20011;-67
2022/09/26 04:18:57;;;;;;;15.95;9.73;;;9.60;51.70;;;;;;7365300;19;20026;-69
2022/09/26 04:21:33;;;;;;;17.05;9.50;;;9.60;51.90;;;;;;7363367;19;20015;-69
2022/09/26 04:24:03;;;;;;;11.88;8.82;;;9.60;51.90;;;;;;7361445;19;20032;-70
2022/09/26 04:26:33;;;;;;;12.60;8.90;;;9.50;52.00;;;;;;7381075;19;20015;-69
2022/09/26 04:29:03;;;;;;;15.85;8.90;;;9.50;51.80;;;;;;7361356;19;20014;-70
2022/09/26 04:31:34;;;;;;;13.25;9.23;;;9.40;51.60;;;;;;7360916;19;20042;-68
2022/09/26 04:34:04;;;;;;;13.98;9.05;;;9.40;51.40;;;;;;7362291;19;20043;-69
2022/09/26 04:36:37;;;;;;;15.45;8.70;;;9.40;51.40;;;;;;7360459;19;20018;-68
2022/09/26 04:39:07;;;;;;;12.85;7.78;;;9.30;50.80;;;;;;7361806;19;20481;-68
2022/09/26 04:41:37;;;;;;;13.77;7.38;;;9.30;50.80;;;;;;7381897;19;20486;-68
2022/09/26 04:44:07;;;;;;;11.52;7.95;;;9.30;50.70;;;;;;7360619;19;20019;-68
2022/09/26 04:46:37;;;;;;;14.63;7.57;;;9.30;50.40;;;;;;7359168;19;20015;-68
2022/09/26 04:49:06;;;;;;;10.93;7.65;;;9.30;49.90;;;;;;7361312;19;20007;-69
2022/09/26 04:51:39;;;;;;;9.82;7.10;;;9.30;49.80;;;;;;7368137;19;20563;-69
2022/09/26 04:54:09;;;;;;;10.93;7.72;;;9.20;49.60;;;;;;7368204;19;20015;-69
2022/09/26 04:56:38;;;;;;;14.10;8.23;;;9.20;49.50;;;;;;7387012;19;20018;-69
2022/09/26 04:59:08;;;;;;;9.13;7.70;;;9.20;49.20;;;;;;7367592;19;20522;-68
2022/09/26 05:01:38;;;;;;;13.55;8.27;;;9.10;49.70;;;;;;7367527;19;20014;-68
2022/09/26 05:04:08;;;;;;;10.27;7.95;;;9.10;49.20;;;;;;7369209;19;20093;-68
2022/09/26 05:06:41;;;;;;;14.82;8.10;;;9.10;49.20;;;;;;7365903;19;20023;-68
2022/09/26 05:09:10;;;;;;;14.35;8.07;;;9.10;48.70;;;;;;7366725;19;20027;-68
2022/09/26 05:11:40;;;;;;;10.90;7.72;;;9.10;48.70;;;;;;7388655;19;20018;-69
2022/09/26 05:14:10;;;;;;;13.65;8.18;;;9.10;48.70;;;;;;7367156;19;20525;-69
2022/09/26 05:16:40;;;;;;;9.70;7.38;;;9.10;48.90;;;;;;7365169;19;20018;-70
2022/09/26 05:19:10;;;;;;;10.80;8.27;;;9.00;48.90;;;;;;7371578;19;20763;-67
2022/09/26 05:21:43;;;;;;;12.90;7.80;;;9.00;49.20;;;;;;7398021;19;20029;-69
2022/09/26 05:26:55;;;;;;;13.15;8.75;;;9.00;49.60;;;;;;7391253;19;20144;-69
2022/09/26 05:29:25;;;;;;;13.45;8.82;;;9.00;49.60;;;;;;7393356;19;20014;-69
2022/09/26 05:31:55;;;;;;;13.25;8.48;;;9.10;49.70;;;;;;7364093;19;20014;-69
2022/09/26 05:34:25;;;;;;;13.32;8.02;;;9.10;49.90;;;;;;7374957;19;20352;-69
2022/09/26 05:36:58;;;;;;;14.43;8.85;;;9.10;49.70;;;;;;7385070;19;20022;-68
2022/09/26 05:42:11;;;;;;;15.23;8.27;;;9.20;49.80;;;;;;7365418;19;20047;-69
2022/09/26 05:44:41;;;;;;;12.07;8.68;;;9.20;49.70;;;;;;7366462;19;20359;-69
2022/09/26 05:47:11;;;;;;;12.93;7.95;;;9.30;49.30;;;;;;7367111;19;20010;-69
2022/09/26 05:49:41;;;;;;;10.75;8.07;;;9.40;48.50;;;;;;7365633;19;20039;-69
2022/09/26 05:52:14;;;;;;;13.63;7.93;;;9.50;47.20;;;;;;7387679;19;20038;-69
2022/09/26 05:54:43;;;;;;;11.35;7.15;;;9.50;45.90;;;;;;7365457;19;20156;-68
2022/09/26 05:57:13;;;;;;;11.77;7.30;;;9.70;44.60;;;;;;7363090;19;20034;-68
2022/09/26 05:59:44;;;;;;;11.50;8.27;;;9.90;43.50;;;;;;7365675;19;20586;-67
2022/09/26 06:02:14;;;;;;;11.55;7.80;;;10.00;41.30;;;;;;7365613;19;20011;-69
2022/09/26 06:04:49;;;;;;;12.65;7.72;;;10.10;40.70;;;;;;7366979;19;20402;-69
2022/09/26 06:07:21;;;;;;;10.18;7.85;;;10.30;39.30;;;;;;7383869;19;20043;-69
2022/09/26 06:09:52;;;;;;;13.45;8.73;;;10.50;38.30;;;;;;7363456;19;20015;-69
2022/09/26 06:12:22;;;;;;;15.35;8.55;;;10.60;37.20;;;;;;7364836;19;20014;-69
2022/09/26 06:14:52;;;;;;;13.15;8.00;;;10.70;36.60;;;;;;7365175;19;20025;-68
2022/09/26 06:17:22;;;;;;;18.15;8.90;;;10.80;36.30;;;;;;7364810;19;20462;-68
2022/09/26 06:19:52;;;;;;;12.98;8.60;;;10.70;33.80;;;;;;7366757;19;20376;-69
2022/09/26 06:22:25;;;;;;;11.93;7.35;;;10.70;35.50;;;;;;7387164;19;20384;-69
2022/09/26 06:24:54;;;;;;;16.08;8.02;;;10.70;35.10;;;;;;7364663;19;20047;-69
2022/09/26 06:27:24;;;;;;;11.15;8.15;;;10.70;34.80;;;;;;7360299;19;20014;-68
2022/09/26 06:29:54;;;;;;;10.45;7.72;;;10.60;34.60;;;;;;7363313;19;20006;-69
2022/09/26 06:32:24;;;;;;;12.98;8.02;;;10.60;34.70;;;;;;7364837;19;20021;-69
2022/09/26 06:34:54;;;;;;;12.85;8.18;;;10.60;34.10;;;;;;7366448;19;20018;-69
2022/09/26 06:37:26;;;;;;;17.17;8.15;;;10.50;34.70;;;;;;7383808;19;20042;-69
2022/09/26 06:39:56;;;;;;;13.60;8.07;;;10.50;35.60;;;;;;7363312;19;20011;-68
2022/09/26 06:42:28;;;;;;;10.80;7.10;;;10.60;35.30;;;;;;7366171;19;20006;-68
2022/09/26 06:44:58;;;;;;;11.38;7.53;;;10.60;35.10;;;;;;7364988;19;20022;-69
2022/09/26 06:47:29;;;;;;;13.32;8.40;;;10.60;34.20;;;;;;7363430;19;20011;-69
2022/09/26 06:49:59;;;;;;;15.35;8.68;;;10.70;33.40;;;;;;7362681;19;20010;-69
2022/09/26 06:52:33;;;;;;;14.73;8.05;;;10.70;32.70;;;;;;7363636;19;20026;-69
2022/09/26 06:55:05;;;;;;;14.98;7.95;;;10.80;32.50;;;;;;7384534;19;20022;-68
2022/09/26 06:57:39;;;;;;;12.00;8.25;;;10.90;32.30;;;;;;7359842;19;20013;-69
2022/09/26 07:00:10;;;;;;;10.60;7.22;;;11.00;30.70;;;;;;7362545;19;20015;-69
2022/09/26 07:02:40;;;;;;;14.85;8.18;;;11.00;29.50;;;;;;7362630;19;20010;-70
2022/09/26 07:05:12;;;;;;;13.05;7.53;;;11.30;28.80;;;;;;7364252;19;20042;-70
2022/09/26 07:07:45;;;;;;;10.38;7.18;;;11.30;24.60;;;;;;7360507;19;20619;-69
2022/09/26 07:10:17;;;;;;;11.85;6.88;;;11.40;23.80;;;;;;7384055;19;20021;-69
2022/09/26 07:12:47;;;;;;;12.27;6.72;;;11.60;22.30;;;;;;7360653;19;20030;-68
2022/09/26 07:15:19;;;;;;;10.52;6.43;;;11.90;22.10;;;;;;7356752;19;20018;-68
2022/09/26 07:17:49;;;;;;;10.80;5.78;;;12.00;19.60;;;;;;7362388;19;20018;-69
2022/09/26 07:20:21;;;;;;;8.88;4.65;;;12.10;16.50;;;;;;7363989;19;20014;-69
2022/09/26 07:22:54;;;;;;;11.07;5.25;;;12.00;13.80;;;;;;7359299;19;20486;-69
2022/09/26 07:25:23;;;;;;;7.10;4.75;;;12.10;14.80;;;;;;7381376;19;20057;-69
2022/09/26 07:27:54;;;;;;;7.80;4.85;;;12.10;15.10;;;;;;7359855;19;20011;-69
2022/09/26 07:30:25;;;;;;;12.73;4.95;;;12.30;14.90;;;;;;7361811;19;20014;-69
2022/09/26 07:32:59;;;;;;;7.00;4.28;;;12.40;12.10;;;;;;7362696;19;20007;-68
2022/09/26 07:35:29;;;;;;;12.00;5.95;;;12.50;9.80;;;;;;7389132;19;20678;-69
2022/09/26 07:38:03;;;;;;;6.28;4.07;;;13.00;9.80;;;;;;7387484;19;20029;-68
2022/09/26 07:40:34;;;;;;;5.10;3.75;;;13.00;5.40;;;;;;7388817;19;20485;-68
2022/09/26 07:43:04;;;;;;;6.57;3.97;;;13.20;6.20;;;;;;7388817;19;20497;-68
2022/09/26 07:51:19;;;;;;;6.05;3.30;;;13.30;3.60;;;;;;7388202;19;20010;-68
2022/09/26 07:53:51;;;;;;;8.13;3.05;;;13.30;2.50;;;;;;7388834;19;20462;-68
2022/09/26 07:56:21;;;;;;;7.95;3.00;;;13.40;1.30;;;;;;7387550;19;20046;-68
2022/09/26 07:58:54;;;;;;;4.57;2.53;;;13.40;1.10;;;;;;7389081;19;20025;-69
2022/09/26 08:01:25;;;;;;;5.97;2.63;;;13.30;1.00;;;;;;7387565;19;20099;-68
2022/09/26 08:03:56;;;;;;;3.85;2.55;;;13.40;1.00;;;;;;7388490;19;20478;-70
2022/09/26 08:06:27;;;;;;;3.80;2.35;;;13.60;1.00;;;;;;7387603;19;20047;-68
2022/09/26 08:08:59;;;;;;;6.15;2.83;;;13.70;1.00;;;;;;7389387;19;20026;-69
2022/09/26 08:11:29;;;;;;;7.22;2.50;;;13.70;1.00;;;;;;7390579;19;20104;-69
2022/09/26 08:14:00;;;;;;;5.18;2.88;;;13.90;1.00;;;;;;7391433;19;20470;-67
2022/09/26 08:16:30;;;;;;;5.97;2.72;;;14.00;1.00;;;;;;7388486;19;20021;-69
2022/09/26 08:19:00;;;;;;;9.70;3.38;;;13.90;1.00;;;;;;7390637;19;20074;-69
2022/09/26 08:21:30;;;;;;;6.97;4.07;;;14.10;1.00;;;;;;7391319;19;20007;-69
2022/09/26 08:24:03;;;;;;;5.90;3.72;;;14.20;1.00;;;;;;7390709;19;20063;-69
2022/09/26 08:26:38;;;;;;;5.88;3.47;;;14.20;1.00;;;;;;7393011;19;20022;-69
2022/09/26 08:29:13;;;;;;;4.80;2.75;;;14.20;1.00;;;;;;7397268;19;20026;-69
2022/09/26 08:31:44;;;;;;;7.07;2.78;;;14.40;1.00;;;;;;7399690;19;20018;-69
2022/09/26 08:34:14;;;;;;;6.85;2.92;;;14.30;1.00;;;;;;7398370;19;20014;-69
2022/09/26 08:36:46;;;;;;;5.85;2.97;;;14.30;1.00;;;;;;7395745;19;20019;-69
2022/09/26 08:39:18;;;;;;;6.93;2.60;;;14.30;1.00;;;;;;7396802;19;20347;-69
2022/09/26 08:42:03;;;;;;;5.20;2.78;;;14.40;1.00;;;;;;7396572;19;20022;-69
2022/09/26 08:44:46;;;;;;;5.22;2.30;;;14.40;1.00;;;;;;7395191;19;20010;-69
2022/09/26 08:47:27;;;;;;;5.95;2.90;;;14.40;1.00;;;;;;7395137;19;20019;-69
2022/09/26 08:50:12;;;;;;;4.60;2.50;;;14.50;1.00;;;;;;7395231;19;20034;-69
2022/09/26 08:52:47;;;;;;;4.65;2.58;;;14.50;1.00;;;;;;7397565;19;20047;-69
2022/09/26 08:55:22;;;;;;;5.60;2.97;;;14.80;1.00;;;;;;7396022;19;20019;-69
2022/09/26 08:57:55;;;;;;;4.25;2.70;;;14.50;1.00;;;;;;7394387;19;20058;-69
2022/09/26 09:00:27;;;;;;;3.97;2.33;;;14.50;1.00;;;;;;7396468;19;20022;-69
2022/09/26 09:03:05;;;;;;;4.28;2.60;;;14.60;1.00;;;;;;7397416;19;20011;-70
2022/09/26 09:05:39;;;;;;;3.95;2.72;;;14.90;1.00;;;;;;7396958;19;20014;-69
2022/09/26 09:08:20;;;;;;;4.53;2.65;;;14.80;1.00;;;;;;7395605;19;20372;-70
2022/09/26 09:11:01;;;;;;;6.15;2.92;;;14.80;1.00;;;;;;7395906;19;20491;-70
2022/09/26 09:13:58;;;;;;;7.47;2.47;;;14.90;1.00;;;;;;7396920;19;20014;-70
2022/09/26 09:16:52;;;;;;;5.43;3.15;;;15.00;1.00;;;;;;7394307;19;20014;-69
2022/09/26 09:19:31;;;;;;;4.03;2.33;;;15.00;1.00;;;;;;7394656;19;20010;-69
2022/09/26 09:22:16;;;;;;;4.13;2.70;;;15.10;1.00;;;;;;7396274;19;20487;-69
2022/09/26 09:24:55;;;;;;;3.17;2.10;;;15.20;1.00;;;;;;7396471;19;20014;-69
2022/09/26 09:27:41;;;;;;;4.47;1.85;;;15.30;1.00;;;;;;7392507;19;20495;-68
2022/09/26 09:30:38;;;;;;;3.58;2.03;;;15.40;1.00;;;;;;7392057;19;20018;-69
2022/09/26 09:33:14;;;;;;;4.63;2.00;;;15.60;1.00;;;;;;7396159;19;20022;-69
2022/09/26 09:35:48;;;;;;;2.92;1.80;;;15.40;1.00;;;;;;7395212;19;20018;-70
2022/09/26 09:38:20;;;;;;;7.30;1.93;;;15.20;1.00;;;;;;7395331;19;20014;-69
2022/09/26 09:40:56;;;;;;;4.75;1.90;;;15.30;1.00;;;;;;7396367;19;20798;-70
2022/09/26 09:43:33;;;;;;;4.53;1.90;;;15.40;1.00;;;;;;7393384;19;20474;-69
2022/09/26 09:46:06;;;;;;;4.43;1.90;;;15.70;1.00;;;;;;7394744;19;20050;-71
2022/09/26 09:48:36;;;;;;;3.10;1.80;;;15.90;1.00;;;;;;7394582;19;20059;-70
2022/09/26 09:51:28;;;;;;;2.65;1.67;;;16.10;1.00;;;;;;7395282;19;20795;-71
2022/09/26 09:54:14;;;;;;;2.38;1.33;;;16.30;1.00;;;;;;7394061;19;20011;-71
2022/09/26 09:56:55;;;;;;;5.72;1.58;;;16.60;1.00;;;;;;7392449;19;20022;-70
2022/09/26 09:59:48;;;;;;;3.50;1.60;;;16.50;1.00;;;;;;7395746;19;20011;-70
2022/09/26 10:02:29;;;;;;;5.45;1.30;;;16.40;1.00;;;;;;7391807;19;20395;-71
2022/09/26 10:05:14;;;;;;;4.15;1.80;;;16.90;1.00;;;;;;7394467;19;20033;-70
2022/09/26 10:07:46;;;;;;;5.50;1.73;;;17.00;1.00;;;;;;7390493;19;20058;-69
2022/09/26 10:10:21;;;;;;;7.78;5.25;;;16.90;1.00;;;;;;7363695;19;20021;-69
2022/09/26 10:12:53;;;;;;;2.67;1.10;;;16.50;1.00;;;;;;7363048;19;20041;-68
2022/09/26 10:15:27;;;;;;;2.80;1.30;;;16.50;1.00;;;;;;7365316;19;20018;-68
2022/09/26 10:18:05;;;;;;;2.15;1.27;;;16.60;1.00;;;;;;7363103;19;20026;-69
2022/09/26 10:20:56;;;;;;;4.47;1.30;;;16.60;1.00;;;;;;7365950;19;20017;-70
2022/09/26 10:23:32;;;;;;;3.72;1.60;;;16.60;1.00;;;;;;7366083;19;20482;-68
2022/09/26 10:26:04;;;;;;;2.97;1.42;;;16.60;1.00;;;;;;7386900;19;20025;-69
2022/09/26 10:28:37;;;;;;;2.10;1.30;;;16.90;1.00;;;;;;7365530;19;20017;-69
2022/09/26 10:31:12;;;;;;;3.28;1.60;;;17.00;1.00;;;;;;7366175;19;20511;-69
2022/09/26 10:33:46;;;;;;;3.22;1.40;;;17.30;1.00;;;;;;7366472;19;20014;-67
2022/09/26 10:36:20;;;;;;;;;;;17.40;1.00;;;;;;7365446;19;20820;-69
2022/09/26 10:41:41;;;;;;;1.63;1.02;;;17.40;1.00;;;;;;7367107;19;20004;-68
2022/09/26 10:44:24;;;;;;;4.43;1.10;;;17.70;1.00;;;;;;7386470;19;20038;-70
2022/09/26 10:47:01;;;;;;;2.10;0.93;;;17.80;1.00;;;;;;7364624;19;20031;-69
2022/09/26 10:49:38;;;;;;;1.58;1.15;;;17.70;1.00;;;;;;7359261;19;20018;-70
2022/09/26 10:52:13;;;;;;;6.20;2.22;;;17.70;1.00;;;;;;7366832;19;20038;-70
2022/09/26 10:54:56;;;;;;;3.15;1.60;;;17.80;1.00;;;;;;7365716;19;20021;-70
2022/09/26 10:57:32;;;;;;;4.32;1.13;;;17.80;1.00;;;;;;7364862;19;20086;-70
2022/09/26 11:00:05;;;;;;;1.33;1.02;;;17.30;1.00;;;;;;7365309;19;20465;-69
2022/09/26 11:02:41;;;;;;;5.22;1.50;;;16.90;1.00;;;;;;7366108;19;20004;-69
2022/09/26 11:07:54;;;;;;;2.40;0.95;;;16.00;1.00;;;;;;7361949;19;20478;-70
2022/09/26 11:10:31;;;;;;;2.53;1.20;;;15.60;1.00;;;;;;7364167;19;20018;-69
2022/09/26 11:13:04;;;;;;;5.35;1.13;;;15.50;1.00;;;;;;7364628;19;20010;-69
2022/09/26 11:15:33;;;;;;;2.13;0.98;;;16.00;1.00;;;;;;7364896;19;20007;-69
2022/09/26 11:18:10;;;;;;;3.05;1.20;;;16.20;1.00;;;;;;7360149;19;20473;-69
2022/09/26 11:20:50;;;;;;;2.85;1.10;;;16.40;1.00;;;;;;7362647;19;20362;-70
2022/09/26 11:23:31;;;;;;;2.28;1.05;;;16.50;1.00;;;;;;7363994;19;20489;-69
2022/09/26 11:26:14;;;;;;;1.55;1.08;;;16.50;1.00;;;;;;7386237;19;20351;-69
2022/09/26 11:28:49;;;;;;;2.30;1.20;;;16.70;1.00;;;;;;7363502;19;20015;-69
2022/09/26 11:31:26;;;;;;;2.33;1.40;;;17.00;1.00;;;;;;7362180;19;20014;-69
2022/09/26 11:34:02;;;;;;;2.88;1.30;;;17.30;1.00;;;;;;7364574;19;20074;-69
2022/09/26 11:37:05;;;;;;;3.08;1.15;;;17.40;1.00;;;;;;7361921;19;20006;-67
2022/09/26 11:39:53;;;;;;;3.00;0.85;;;17.30;1.00;;;;;;7363635;19;20014;-70
2022/09/26 11:42:34;;;;;;;5.90;1.30;;;17.70;1.00;;;;;;7365566;19;20018;-68
2022/09/26 11:45:15;;;;;;;1.52;1.05;;;17.90;1.00;;;;;;7364786;19;20015;-69
2022/09/26 11:48:17;;;;;;;4.10;1.25;;;18.00;1.00;;;;;;7362133;19;20529;-69
2022/09/26 11:50:57;;;;;;;1.88;1.10;;;18.20;1.00;;;;;;7360789;19;20031;-70
2022/09/26 11:53:47;;;;;;;1.40;1.10;;;17.80;1.00;;;;;;7363502;19;21053;-69
2022/09/26 11:56:54;;;;;;;3.22;0.85;;;17.50;1.00;;;;;;7364173;19;20018;-71
2022/09/26 11:59:59;;;;;;;1.98;1.25;;;17.20;1.00;;;;;;7362281;19;20018;-70
2022/09/26 12:02:59;;;;;;;4.85;1.42;;;16.70;1.00;;;;;;7365040;19;20098;-68
2022/09/26 12:05:41;;;;;;;4.15;1.33;;;15.50;1.00;;;;;;7362518;19;20014;-68
2022/09/26 12:08:29;;;;;;;4.43;1.63;;;14.90;1.00;;;;;;7385982;19;20122;-69
2022/09/26 12:11:14;;;;;;;3.40;1.00;;;14.70;1.00;;;;;;7361943;19;20011;-67
2022/09/26 12:13:51;;;;;;;2.33;0.70;;;14.80;1.00;;;;;;7362211;19;20032;-67
2022/09/26 12:16:27;;;;;;;1.40;0.80;;;14.80;1.00;;;;;;7361546;19;20029;-68
2022/09/26 12:19:04;;;;;;;1.50;0.90;;;14.90;1.00;;;;;;7345287;19;20015;-68
2022/09/26 12:22:27;;;;;;;1.52;0.90;;;14.80;1.00;;;;;;7357728;19;20018;-68
2022/09/26 12:24:48;;;;;;;1.85;1.05;;;14.80;1.00;;;;;;7358904;19;20070;-69
2022/09/26 12:27:26;;;;;;;1.65;0.90;;;14.70;1.00;;;;;;7358625;19;20011;-69
2022/09/26 12:30:04;;;;;;;6.28;1.00;;;14.70;1.00;;;;;;7353571;19;20399;-68
2022/09/26 12:32:59;;;;;;;1.10;0.65;;;15.20;1.00;;;;;;7359235;19;20026;-68
2022/09/26 12:35:46;;;;;;;3.05;1.70;;;15.50;1.00;;;;;;7358909;19;20019;-69
2022/09/26 12:38:55;;;;;;;0.98;0.80;;;15.80;1.00;;;;;;7354649;19;20018;-70
2022/09/26 12:41:46;;;;;;;2.83;1.60;;;15.90;1.00;;;;;;7355537;19;20022;-68
2022/09/26 12:44:49;;;;;;;3.90;1.23;;;16.00;1.00;;;;;;7358276;19;20017;-70
2022/09/26 12:47:44;;;;;;;1.42;1.13;;;16.10;1.00;;;;;;7353568;19;20656;-70
2022/09/26 12:50:19;;;;;;;1.80;1.00;;;16.40;1.00;;;;;;7368892;19;20439;-72
2022/09/26 12:52:58;;;;;;;;;;;16.00;1.00;;;;;;7379679;19;20043;-70
2022/09/26 12:55:38;;;;;;;2.05;1.00;;;16.10;1.00;;;;;;7359226;19;19914;-70
2022/09/26 12:58:27;;;;;;;2.40;1.30;;;16.10;1.00;;;;;;7354676;19;20033;-71
2022/09/26 13:01:10;;;;;;;1.75;1.08;;;16.30;1.00;;;;;;7356715;19;20065;-69
2022/09/26 13:04:13;;;;;;;1.52;1.05;;;16.40;1.00;;;;;;7360260;19;20007;-69
2022/09/26 13:07:14;;;;;;;2.45;1.20;;;16.40;1.00;;;;;;7357189;19;20014;-70
2022/09/26 13:10:11;;;;;;;;;;;16.50;1.00;;;;;;7351908;19;20106;-70
2022/09/26 13:12:58;;;;;;;4.43;1.10;;;16.40;1.00;;;;;;7360983;19;20265;-69
2022/09/26 13:15:34;;;;;;;2.05;1.13;;;16.40;1.00;;;;;;7365165;19;20026;-69
2022/09/26 13:18:09;;;;;;;2.47;1.23;;;16.50;1.00;;;;;;7363363;19;20010;-69
2022/09/26 13:20:43;;;;;;;1.65;0.90;;;16.50;1.00;;;;;;7362097;19;20015;-68
2022/09/26 13:23:22;;;;;;;2.40;0.98;;;16.60;1.00;;;;;;7386878;19;20018;-69
2022/09/26 13:25:58;;;;;;;3.45;0.95;;;16.50;1.00;;;;;;7366366;19;20042;-71
2022/09/26 13:28:45;;;;;;;1.10;0.90;;;16.50;1.00;;;;;;7358038;19;20015;-69
2022/09/26 13:31:42;;;;;;;3.92;0.93;;;16.20;1.00;;;;;;7363192;19;20095;-69
2022/09/26 13:34:20;;;;;;;1.00;0.70;;;16.20;1.00;;;;;;7365859;19;20010;-69
2022/09/26 13:36:51;;;;;;;1.40;0.80;;;16.30;1.00;;;;;;7361991;19;20445;-70
2022/09/26 13:39:30;;;;;;;1.95;0.60;;;16.20;1.00;;;;;;7358043;19;20102;-69
2022/09/26 13:42:04;;;;;;;1.63;0.77;;;16.20;1.00;;;;;;7364871;19;20456;-69
2022/09/26 13:44:44;;;;;;;;;;;16.20;1.00;;;;;;7365095;19;20020;-69
2022/09/26 13:47:23;;;;;;;1.00;0.60;;;16.10;1.00;;;;;;7383198;19;20497;-69
2022/09/26 13:50:03;;;;;;;0.70;0.50;;;16.20;1.00;;;;;;7357341;19;20010;-69